Utica, NY

8:54 PM EDT on September 25, 2016 (GMT -0400)
Southwoods | | Change Station
Active Advisory: Frost Advisory

Elev 932 ft 43.06 °N, 75.25 °W | Updated 16 seconds ago

Clear
Clear
48.2 °F
Feels Like 48 °F
N
0.0
Wind Variable Wind from SSE
Gusts 0.0 mph

Today
High -- | Low -- °F
--% Chance of Precip.
Yesterday
High -- | Low -- °F
Precip. -- in
Pressure 30.22 in
Visibility 10.0 miles
Clouds Clear
Windchill 48 °F
Dew Point 46 °F
Humidity 90%
Rainfall 0.00 in
Snow Depth Not available.
6:52 AM 6:51 PM
Waning Crescent, 23% visible
METAR KRME 252353Z 00000KT 10SM CLR 10/06 A3021 RMK AO2 SLP232 T01000061 10178 20100 53009 $
Pressure 30.22 in
Visibility 10.0 miles
Clouds Clear
Windchill 48 °F
Dew Point 46 °F
Humidity 90%
Rainfall 0.00 in
Snow Depth Not available.
6:52 AM 6:51 PM
Waning Crescent, 23% visible
METAR KRME 252353Z 00000KT 10SM CLR 10/06 A3021 RMK AO2 SLP232 T01000061 10178 20100 53009 $

10-Day Weather Forecast

Almanac

Astronomy

Sep. 25, 2016 Rise Set
Actual Time
Civil Twilight
Nautical Twilight
Astronomical Twilight
Moon
Length of Visible Light
Length of Day
Tomorrow will be .
, % of the Moon is Illuminated

Today's Extremes

State Highs State Lows

Community

WunderPhotos

Upload Photos

1,941,797 photos uploaded!

WunderBlog® & News

Nearby

Air Quality

  Air Quality AQ Index Pollutant
Not available.

Snow Depth

Station Depth Elevation

Earthquake Activity

City Distance Mag. Time & Date
Minimum magnitude displayed is 2.5.

Coastal Water Temperatures

Place Temperature

Stations

Nearby Weather Stations

Station Location Temp. Windchill Dew Point Humidity Wind Precip. Elev Updated Type
                   

Watches & Warnings

Frost Advisory
Issued: 7:34 PM EDT Sep. 25, 2016 – National Weather Service

... Frost advisory remains in effect from 2 am to 8 am EDT
Monday...

* locations... Oneida... Otsego... Delaware and Sullivan counties
in central New York.

* Hazards... areas of frost.

* Temperatures... in the mid 30s.

* Impacts... potential damage to sensitive plants.

Precautionary/preparedness actions...

A frost advisory means that widespread frost is expected.
Sensitive outdoor plants may be killed if left uncovered.